Tiempo atmosférico en la estación meteorológica de Cillórigo de Liébana, Tama, Cantabria (250 m.)



Fecha
DESCASC
Temp. máxima en grados centígrados (hora)
DESCASC
Temp. mínima en grados centígrados (hora)
DESCASC
Temp. media en grados centígrados
DESCASC
Racha de viento máxima en m/sg (hora)
DESCASC
Velocidad máxima media en intervalos de 10 minutos(hora)
DESCASC
Precipitaciones diarias en mm
DESCASC
Precipitaciones de 00:00 a 06:00 en mm
DESCASC
Precipitaciones de 06:00 a 12:00 en mm
DESCASC
Precipitaciones de 12:00 a 18:00 en mm
DESCASC
Precipitaciones de 18:00 a 24:00 en mm
DESCASC
23-06-2019 25.3 (12:50) 12.7 (07:00) 19 8.61 (22:40) 4.17 (13:50) 0 0 0 0 0
22-06-2019 29.7 (16:40) 9.1 (07:00) 19.4 8.33 (19:10) 3.33 (17:10) 0 0 0 0 0
21-06-2019 20.9 (15:30) 13.9 (05:40) 17.4 10.28 (16:20) 5 (16:10) 1.2 1.2 0 0 0
20-06-2019 18.3 (14:10) 14.5 (00:00) 16.4 9.17 (15:10) 4.17 (15:10) 2.8 0.4 0.2 0 2.2
19-06-2019 21.8 (12:30) 15.3 (00:00) 18.5 -- (--) -- (--) -- 0 0 -- 0.6
18-06-2019 31.4 (15:50) 10.9 (00:00) 21.1 13.61 (15:20) 6.11 (14:40) 0 0 0 0 0
17-06-2019 27.9 (15:20) 10.3 (00:00) 19.1 7.78 (15:50) 4.17 (14:20) 0 0 0 0 0
16-06-2019 23.6 (15:40) 9 (00:00) 16.3 14.17 (17:30) 7.78 (18:00) 0 0 0 0 0
15-06-2019 18.9 (13:50) 11.4 (00:00) 15.1 15.28 (16:50) 7.22 (16:50) 3 2.8 0 0.2 0
14-06-2019 16.7 (14:00) 9.1 (00:00) 12.9 12.78 (14:30) 7.22 (15:00) 0.6 0 0 0 0.6
13-06-2019 16.4 (13:00) 6.9 (00:00) 11.6 12.22 (15:10) 6.39 (14:20) 0 0 0 0 0
12-06-2019 17 (17:20) 5.7 (00:00) 11.3 8.89 (21:00) 5.28 (21:00) 0.2 0.2 0 0 0
11-06-2019 15.5 (15:40) 8.3 (00:00) 11.9 10.56 (17:30) 4.72 (17:30) 8.4 2.2 5.4 0.4 0.4
10-06-2019 17.9 (14:30) 9.8 (00:00) 13.8 10.83 (16:20) 5 (17:00) 1.4 0 0 0 1.4
09-06-2019 16 (13:20) 11.9 (00:00) 13.9 8.61 (18:40) 5 (18:40) 0 0 0 0 0
08-06-2019 17.5 (14:10) 9.7 (00:00) 13.6 13.89 (15:30) 6.67 (15:20) 0 0 0 0 0
07-06-2019 20.5 (15:00) 8.8 (00:00) 14.7 11.11 (03:40) 6.11 (05:40) 0.8 0 0 0 0.8
06-06-2019 23.1 (15:20) 6.7 (00:00) 14.9 13.61 (15:30) 6.67 (15:30) 3.4 0 0 0 3.4
05-06-2019 17 (16:20) 10.8 (00:00) 13.9 13.06 (14:30) 6.67 (14:20) 3.8 3.6 0 0.2 0
04-06-2019 22.8 (12:50) 12.1 (00:00) 17.4 14.44 (15:00) 8.06 (15:00) 3.2 0 0 0 3.2
03-06-2019 24.8 (15:50) 12.5 (00:00) 18.6 11.67 (17:00) 5.83 (16:40) 0 0 0 0 0
02-06-2019 28.1 (13:50) 10.1 (00:00) 19.1 10.56 (15:20) 5.28 (15:30) 0 0 0 0 0
01-06-2019 33.1 (15:30) 8.9 (00:00) 21 9.44 (16:20) 5.28 (16:20) 0 0 0 0 0
31-05-2019 31.7 (14:50) 8.6 (00:00) 20.2 8.89 (17:40) 5.28 (17:50) 0 0 0 0 0
30-05-2019 28.1 (15:40) 6.9 (00:00) 17.5 12.22 (17:30) 6.11 (17:20) 0 0 0 0 0
29-05-2019 22.9 (16:50) 5.7 (00:00) 14.3 9.17 (14:20) 5 (18:10) 0 0 0 0 0
28-05-2019 18.5 (15:10) 10.8 (00:00) 14.7 16.39 (17:20) 6.39 (17:20) 0 0 0 0 0
27-05-2019 20.3 (15:00) 13 (00:00) 16.6 13.61 (15:00) 6.67 (14:30) 0 0 0 0 0
26-05-2019 19.5 (15:30) 7.6 (00:00) 13.5 13.61 (17:50) 6.67 (17:40) 0 0 0 0 0

Gráficas

Temp. máximas Temp. mínimas Temp. medias Precipitaciones Rachas de viento máximas Velocidades máximas media en intervalos de 10 minutos

Datos horarios

Fecha y hora oficial Temperatura (ºC) Velocidad del viento (km/h) Dirección del viento Racha (km/h) Dirección de racha Precipitación (mm) Presión (hPa) Tendencia (hPa) Humedad (%)
2019-06-24 23:00:00 17.3 3 Sur 11 Sudeste 1.8 -- -- 95
2019-06-24 22:00:00 17.3 0 Calma 8 Sur 1.8 -- -- 94
2019-06-24 21:00:00 17.9 3 Norte 10 Noroeste 1.4 -- -- 90
2019-06-24 20:00:00 18.9 5 Norte 19 Norte 0 -- -- 80
2019-06-24 19:00:00 19.1 8 Noroeste 27 Noroeste 0 -- -- 78
2019-06-24 18:00:00 20.5 9 Noroeste 39 Norte 0 -- -- 69
2019-06-24 17:00:00 22.1 17 Norte 39 Norte 0 -- -- 63
2019-06-24 16:00:00 23.1 14 Norte 34 Norte 0 -- -- 64
2019-06-24 15:00:00 23.5 4 Nordeste 19 Norte 0 -- -- 71
2019-06-24 14:00:00 22.5 7 Norte 15 Nordeste 0 -- -- 67
2019-06-24 13:00:00 22.4 6 Norte 13 Norte 0 -- -- 65
2019-06-24 12:00:00 21 3 Noroeste 10 Noroeste 0 -- -- 71
2019-06-24 11:00:00 19.3 3 Noroeste 7 Noroeste 0 -- -- 77
2019-06-24 10:00:00 17.7 0 Calma 6 Noroeste 0 -- -- 81
2019-06-24 09:00:00 15.5 0 Calma 8 Sur 0 -- -- 91
2019-06-24 08:00:00 14.2 3 Sur 5 Sudeste 0 -- -- 94
2019-06-24 07:00:00 13.9 0 Calma 4 Sudoeste 0 -- -- 93
2019-06-24 06:00:00 14.1 0 Calma 7 Nordeste 0 -- -- 91
2019-06-24 05:00:00 14.4 2 Sur 6 Este 0 -- -- 92
2019-06-24 04:00:00 14.2 0 Calma 5 Sudoeste 0 -- -- 92
2019-06-24 03:00:00 14.7 0 Calma 5 Sur 0 -- -- 88
2019-06-24 02:00:00 16 2 Sur 6 Sudeste 0 -- -- 84
2019-06-24 01:00:00 17.4 2 Sur 17 Norte 0 -- -- 79
2019-06-24 00:00:00 18.6 7 Norte 28 Norte 0 -- -- 74
2019-06-23 23:00:00 19 11 Norte 31 Noroeste 0 -- -- 72
2019-06-23 22:00:00 19.7 9 Norte 26 Norte 0 -- -- 70
2019-06-23 21:00:00 20.9 7 Norte 19 Norte 0 -- -- 66
2019-06-23 20:00:00 22.1 4 Norte 19 Norte 0 -- -- 65
2019-06-23 19:00:00 23.2 6 Norte 17 Norte 0 -- -- 61
2019-06-23 18:00:00 25 0 Calma 5 Oeste 0 -- -- 60
2019-06-23 17:00:00 24.6 0 Calma 18 Norte 0 -- -- 57
2019-06-23 16:00:00 23 9 Norte 23 Nordeste 0 -- -- 60
2019-06-23 15:00:00 23.4 8 Norte 28 Norte 0 -- -- 59
2019-06-23 14:00:00 25 11 Norte 29 Norte 0 -- -- 56
2019-06-23 13:00:00 25.2 9 Norte 22 Norte 0 -- -- 52
2019-06-23 12:00:00 24.6 7 Norte 17 Nordeste 0 -- -- 52
2019-06-23 11:00:00 21.8 3 Este 9 Nordeste 0 -- -- 63
2019-06-23 10:00:00 18.1 3 Noroeste 5 Noroeste 0 -- -- 79
2019-06-23 09:00:00 15.3 0 Calma 6 Nordeste 0 -- -- 91
2019-06-23 08:00:00 12.9 2 Noroeste 9 Oeste 0 -- -- 95
2019-06-23 07:00:00 12.7 2 Noroeste 5 Sudoeste 0 -- -- 95
2019-06-23 06:00:00 13.2 0 Calma 6 Sudeste 0 -- -- 92
2019-06-23 05:00:00 14.3 0 Calma 5 Oeste 0 -- -- 91
2019-06-23 04:00:00 15.2 0 Calma 3 Sudeste 0 -- -- 89
2019-06-23 03:00:00 15.9 0 Calma 4 Oeste 0 -- -- 88
2019-06-23 02:00:00 16.8 0 Calma 4 Este 0 -- -- 85
2019-06-23 01:00:00 18.1 2 Sudeste 5 Sudeste 0 -- -- 80
2019-06-23 00:00:00 19.4 0 Calma 4 Sudoeste 0 -- -- 75
2019-06-22 23:00:00 21.4 0 Calma 9 Sudoeste 0 -- -- 66
2019-06-22 22:00:00 23.2 2 Sur 18 Norte 0 -- -- 60
2019-06-22 21:00:00 25 8 Noroeste 17 Norte 0 -- -- 50
2019-06-22 20:00:00 25.8 7 Norte 30 Noroeste 0 -- -- 52
2019-06-22 19:00:00 26.9 12 Norte 30 Noroeste 0 -- -- 53
2019-06-22 18:00:00 28.8 11 Norte 22 Noroeste 0 -- -- 45
2019-06-22 17:00:00 29.6 10 Norte 17 Norte 0 -- -- 38
2019-06-22 16:00:00 29.6 6 Norte 16 Norte 0 -- -- 35
2019-06-22 15:00:00 28.1 3 Noroeste 14 Sudeste 0 -- -- 36
2019-06-22 14:00:00 27.8 4 Noroeste 13 Sur 0 -- -- 35
2019-06-22 13:00:00 25 3 Sur 8 Sur 0 -- -- 46
2019-06-22 12:00:00 22.3 0 Calma 8 Noroeste 0 -- -- 59
2019-06-22 11:00:00 19.2 0 Calma 4 Noroeste 0 -- -- 69
2019-06-22 10:00:00 14.9 0 Calma 5 Noroeste 0 -- -- 85
2019-06-22 09:00:00 12.3 0 Calma 5 Noroeste 0 -- -- 97
2019-06-22 08:00:00 10.1 0 Calma 3 Sudoeste 0 -- -- 97
2019-06-22 07:00:00 9.1 0 Calma 3 Oeste 0 -- -- 95
2019-06-22 06:00:00 9.9 0 Calma 3 Oeste 0 -- -- 95
2019-06-22 05:00:00 10.7 0 Calma 12 Sudeste 0 -- -- 93
2019-06-22 04:00:00 11.6 4 Sudeste 9 Sudeste 0 -- -- 91
2019-06-22 03:00:00 12.7 0 Calma 12 Sudeste 0 -- -- 88
2019-06-22 02:00:00 14 6 Sudeste 13 Sudeste 0 -- -- 85
2019-06-22 01:00:00 14.8 3 Sur 8 Sudeste 0 -- -- 84
2019-06-22 00:00:00 14.9 0 Calma 3 Oeste 0 -- -- 84
2019-06-21 23:00:00 15.2 0 Calma 13 Norte 0 -- -- 82
2019-06-21 22:00:00 15.5 7 Norte 21 Norte 0 -- -- 78
2019-06-21 21:00:00 16.1 10 Norte 29 Noroeste 0 -- -- 76
2019-06-21 20:00:00 16.8 13 Noroeste 30 Norte 0 -- -- 73
2019-06-21 19:00:00 18.2 14 Norte 33 Noroeste 0 -- -- 69
2019-06-21 18:00:00 19.4 14 Noroeste 28 Noroeste 0 -- -- 68
2019-06-21 17:00:00 19.4 15 Noroeste 37 Norte 0 -- -- 68
2019-06-21 16:00:00 20.9 13 Norte 32 Norte 0 -- -- 63
2019-06-21 15:00:00 20.3 13 Norte 26 Norte 0 -- -- 62
2019-06-21 14:00:00 19.6 10 Nordeste 21 Norte 0 -- -- 64
2019-06-21 13:00:00 18.5 6 Norte 22 Nordeste 0 -- -- 72
2019-06-21 12:00:00 17.1 9 Nordeste 18 Norte 0 -- -- 73
2019-06-21 11:00:00 15.6 5 Norte 22 Norte 0 -- -- 79
2019-06-21 10:00:00 15.3 12 Norte 33 Noroeste 0 -- -- 77
2019-06-21 09:00:00 14.7 10 Norte 31 Noroeste 0 -- -- 81
2019-06-21 08:00:00 14.5 9 Norte 26 Noroeste 0 -- -- 84
2019-06-21 07:00:00 14.3 7 Norte 13 Noroeste 0 -- -- 86
2019-06-21 06:00:00 14.1 4 Nordeste 8 Norte 0 -- -- 92
2019-06-21 05:00:00 14.1 0 Calma 6 Sudoeste 0 -- -- 96
2019-06-21 04:00:00 14.1 0 Calma 8 Sudoeste 0.2 -- -- 96
2019-06-21 03:00:00 14.3 2 Sur 5 Sur 0 -- -- 96
2019-06-21 02:00:00 14.1 0 Calma 3 Norte 0 -- -- 96
2019-06-21 01:00:00 14.2 0 Calma 6 Oeste 1 -- -- 95
2019-06-21 00:00:00 14.5 2 Sudeste 8 Sur 0.6 -- -- 93
2019-06-20 23:00:00 14.6 4 Sudoeste 15 Noroeste 0 -- -- 91
2019-06-20 22:00:00 15 11 Norte 22 Norte 0.2 -- -- 87
2019-06-20 21:00:00 15.1 0 Calma 26 Norte 1.4 -- -- 89
2019-06-20 20:00:00 15.5 12 Norte 26 Norte 0 -- -- 83
2019-06-20 19:00:00 16 7 Norte 16 Norte 0 -- -- 82
2019-06-20 18:00:00 16.7 9 Norte 26 Noroeste 0 -- -- 78
2019-06-20 17:00:00 16.8 8 Noroeste 23 Noroeste 0 -- -- 79
2019-06-20 16:00:00 16.9 12 Noroeste 33 Noroeste 0 -- -- 77
2019-06-20 15:00:00 17.5 12 Noroeste 28 Norte 0 -- -- 75
2019-06-20 14:00:00 18.2 10 Norte 30 Noroeste 0 -- -- 74
2019-06-20 13:00:00 18.1 8 Norte 24 Noroeste 0 -- -- 74
2019-06-20 12:00:00 18 9 Noroeste 22 Noroeste 0 -- -- 75
2019-06-20 11:00:00 17 6 Noroeste 14 Noroeste 0 -- -- 79
2019-06-20 10:00:00 16.5 0 Calma 5 Sur 0 -- -- 86
2019-06-20 09:00:00 15.6 2 Sur 4 Sur 0 -- -- 92
2019-06-20 08:00:00 15 0 Calma 4 Sudoeste 0.2 -- -- 94
2019-06-20 07:00:00 14.8 0 Calma 4 Sudoeste 0 -- -- 93
2019-06-20 06:00:00 15.1 0 Calma 3 Sudoeste 0 -- -- 94
2019-06-20 05:00:00 15.2 0 Calma 5 Sur 0.4 -- -- 94
2019-06-20 04:00:00 15.3 2 Sur 7 Sur 0 -- -- 92
2019-06-20 03:00:00 15.5 0 Calma 6 Sur 0 -- -- 91
2019-06-20 02:00:00 15.6 0 Calma 5 Sudoeste 0 -- -- 89
2019-06-20 01:00:00 15.9 3 Sudoeste 12 Noroeste 0 -- -- 88
2019-06-20 00:00:00 16.3 5 Noroeste 15 Noroeste 0 -- -- 83
2019-06-19 23:00:00 16.2 3 Norte 12 Sudoeste 0.2 -- -- 85
2019-06-19 22:00:00 16.5 0 Calma 4 Oeste 0.4 -- -- 88
2019-06-19 21:00:00 17.2 2 Norte 15 Noroeste 0 -- -- 80
2019-06-19 20:00:00 18 8 Noroeste 28 Norte 0 -- -- 73
2019-06-19 19:00:00 18.5 12 Noroeste 35 Norte 0 -- -- 69
2019-06-19 18:00:00 19.1 19 Norte 40 Norte 0 -- -- 67
2019-06-19 17:00:00 19.3 18 Norte 53 Noroeste 0 -- -- 67
2019-06-19 16:00:00 20.2 18 Norte 40 Noroeste 0 -- -- 65
2019-06-19 15:00:00 21.6 15 Norte -- -- -- -- -- 62
2019-06-19 14:00:00 -- -- -- -- -- -- -- -- --
2019-06-19 13:00:00 21.5 15 Norte 30 Norte 0 -- -- 59
2019-06-19 12:00:00 21.2 10 Norte 28 Norte 0 -- -- 57
2019-06-19 11:00:00 21 9 Norte 23 Norte 0 -- -- 56
2019-06-19 10:00:00 21 4 Sur 9 Sudeste 0 -- -- 56
2019-06-19 09:00:00 19.1 4 Sudeste 12 Sudoeste 0 -- -- 61
2019-06-19 08:00:00 16.4 6 Sur 10 Sur 0 -- -- 74
2019-06-19 07:00:00 15.8 0 Calma 4 Oeste 0 -- -- 79
2019-06-19 06:00:00 15.3 2 Noroeste 5 Oeste 0 -- -- 79
2019-06-19 05:00:00 15.8 3 Norte 10 Nordeste 0 -- -- 77
2019-06-19 04:00:00 16.1 2 Noroeste 10 Sudoeste 0 -- -- 75
2019-06-19 03:00:00 16.6 2 Norte 9 Oeste 0 -- -- 73
2019-06-19 02:00:00 17.4 0 Calma 9 Oeste 0 -- -- 68
2019-06-19 01:00:00 17.7 0 Calma 8 Sudeste 0 -- -- 65
2019-06-19 00:00:00 18.6 3 Sudoeste 9 Sudoeste 0 -- -- 59
2019-06-18 23:00:00 19.5 2 Noroeste 19 Norte 0 -- -- 54
2019-06-18 22:00:00 20.5 6 Norte 19 Norte 0 -- -- 50
2019-06-18 21:00:00 22.1 9 Nordeste 22 Nordeste 0 -- -- 49
2019-06-18 20:00:00 23.5 8 Norte 18 Norte 0 -- -- 51
2019-06-18 19:00:00 23.5 5 Noroeste 35 Nordeste 0 -- -- 54
2019-06-18 18:00:00 24.9 10 Norte 27 Norte 0 -- -- 49
2019-06-18 17:00:00 30 12 Sur 40 Sur 0 -- -- 24
2019-06-18 16:00:00 30.9 12 Sur 49 Sudeste 0 -- -- 21
2019-06-18 15:00:00 31 14 Sur 47 Sudoeste 0 -- -- 20
2019-06-18 14:00:00 30.3 17 Sur 44 Sur 0 -- -- 19
2019-06-18 13:00:00 30.1 13 Sur 44 Sur 0 -- -- 15
2019-06-18 12:00:00 28.2 12 Sur 31 Sur 0 -- -- 21
2019-06-18 11:00:00 20.7 0 Calma 5 Este 0 -- -- 58
2019-06-18 10:00:00 16.9 0 Calma 4 Este 0 -- -- 80
2019-06-18 09:00:00 12.5 0 Calma 4 Norte 0 -- -- 96
2019-06-18 08:00:00 11.1 0 Calma 5 Sudoeste 0 -- -- 96
2019-06-18 07:00:00 11.1 0 Calma 4 Este 0 -- -- 96
2019-06-18 06:00:00 11.8 0 Calma 4 Sudoeste 0 -- -- 95
2019-06-18 05:00:00 12.5 0 Calma 5 Sudoeste 0 -- -- 95
2019-06-18 04:00:00 13 0 Calma 5 Sur 0 -- -- 94
2019-06-18 03:00:00 13.7 0 Calma 5 Norte 0 -- -- 93
2019-06-18 02:00:00 15.1 0 Calma 9 Este 0 -- -- 90
2019-06-18 01:00:00 16 0 Calma 5 Oeste 0 -- -- 88
2019-06-18 00:00:00 16.4 4 Norte 9 Norte 0 -- -- 87
2019-06-17 23:00:00 17 0 Calma 7 Nordeste 0 -- -- 84
2019-06-17 22:00:00 17.4 4 Norte 17 Norte 0 -- -- 81
2019-06-17 21:00:00 18.3 8 Noroeste 26 Norte 0 -- -- 78
2019-06-17 20:00:00 19.2 8 Noroeste 26 Norte 0 -- -- 75
2019-06-17 19:00:00 20.9 10 Noroeste 18 Norte 0 -- -- 71
2019-06-17 18:00:00 23.1 7 Norte 21 Norte 0 -- -- 65
2019-06-17 17:00:00 25.3 10 Noroeste 26 Noroeste 0 -- -- 57
2019-06-17 16:00:00 27.8 10 Norte 28 Norte 0 -- -- 51
2019-06-17 15:00:00 27.3 14 Norte 27 Nordeste 0 -- -- 51
2019-06-17 14:00:00 27 13 Nordeste 21 Nordeste 0 -- -- 47
2019-06-17 13:00:00 25.8 10 Nordeste 15 Nordeste 0 -- -- 50
2019-06-17 12:00:00 23.6 7 Nordeste 11 Nordeste 0 -- -- 52
2019-06-17 11:00:00 20 0 Calma 5 Noroeste 0 -- -- 66
2019-06-17 10:00:00 16.2 0 Calma 4 Este 0 -- -- 77
2019-06-17 09:00:00 11.7 0 Calma 3 Este 0 -- -- 95
2019-06-17 08:00:00 10.3 0 Calma 4 Sudeste 0 -- -- 94
2019-06-17 07:00:00 10.3 0 Calma 5 Este 0 -- -- 94
2019-06-17 06:00:00 11.1 0 Calma 7 Sudeste 0 -- -- 92
2019-06-17 05:00:00 11.9 5 Sur 9 Sur 0 -- -- 92
2019-06-17 04:00:00 11.7 0 Calma -- -- 0 -- -- 94
2019-06-17 03:00:00 12.1 0 Calma 2 Este 0 -- -- 92
2019-06-17 02:00:00 13.1 0 Calma 4 Sudoeste 0 -- -- 90
2019-06-17 01:00:00 14.2 0 Calma 9 Nordeste 0 -- -- 88
2019-06-17 00:00:00 15.5 2 Noroeste 9 Nordeste 0 -- -- 84
2019-06-16 23:00:00 17.1 4 Norte 8 Nordeste 0 -- -- 79
2019-06-16 22:00:00 18.6 2 Norte 14 Noroeste 0 -- -- 72
2019-06-16 21:00:00 20.3 10 Norte 33 Noroeste 0 -- -- 64
2019-06-16 20:00:00 21.4 13 Norte 35 Norte 0 -- -- 60
2019-06-16 19:00:00 22.5 21 Norte 42 Noroeste 0 -- -- 58
2019-06-16 18:00:00 22.5 28 Norte 51 Norte 0 -- -- 59
2019-06-16 17:00:00 23.4 19 Norte 40 Noroeste 0 -- -- 56
2019-06-16 16:00:00 23.4 19 Norte 41 Norte 0 -- -- 55
2019-06-16 15:00:00 23.3 14 Norte 33 Norte 0 -- -- 54
2019-06-16 14:00:00 22.3 14 Norte 33 Norte 0 -- -- 55
2019-06-16 13:00:00 21.8 8 Noroeste 21 Noroeste 0 -- -- 56
2019-06-16 12:00:00 19.9 4 Norte 10 Noroeste 0 -- -- 56
2019-06-16 11:00:00 17.6 2 Norte 8 Noroeste 0 -- -- 63
2019-06-16 10:00:00 14.9 0 Calma 0 Calma 0 -- -- 72
2019-06-16 09:00:00 11.4 0 Calma -- -- 0 -- -- 89
2019-06-16 08:00:00 9.5 0 Calma -- -- 0 -- -- 95
2019-06-16 07:00:00 9 0 Calma -- -- 0 -- -- 94
2019-06-16 06:00:00 9.9 0 Calma -- -- 0 -- -- 93
2019-06-16 05:00:00 10.7 0 Calma 0 Calma 0 -- -- 90
2019-06-16 04:00:00 12.1 0 Calma 2 Sudoeste 0 -- -- 87
2019-06-16 03:00:00 13.1 0 Calma 3 Sudoeste 0 -- -- 85
2019-06-16 02:00:00 13.5 0 Calma 5 Sudoeste 0 -- -- 83
2019-06-16 01:00:00 13.7 0 Calma 4 Oeste 0 -- -- 81
2019-06-16 00:00:00 14 4 Sudoeste 6 Sudoeste 0 -- -- 78
2019-06-15 23:00:00 14.5 0 Calma 10 Noroeste 0 -- -- 74
2019-06-15 22:00:00 14.7 3 Noroeste 14 Norte 0 -- -- 69
2019-06-15 21:00:00 14.9 6 Norte 24 Noroeste 0 -- -- 68
2019-06-15 20:00:00 15.2 8 Norte 29 Norte 0 -- -- 67
2019-06-15 19:00:00 15.3 14 Norte 42 Norte 0 -- -- 66
2019-06-15 18:00:00 16 21 Norte 50 Norte 0 -- -- 64
2019-06-15 17:00:00 17 21 Norte 55 Noroeste 0.2 -- -- 65
2019-06-15 16:00:00 17.6 20 Norte 47 Noroeste 0 -- -- 64
2019-06-15 15:00:00 18.6 18 Norte 42 Norte 0 -- -- 64
2019-06-15 14:00:00 18.8 16 Norte 37 Norte 0 -- -- 61
2019-06-15 13:00:00 18.4 14 Norte 27 Norte 0 -- -- 62
2019-06-15 12:00:00 17.8 9 Norte 20 Norte 0 -- -- 63
2019-06-15 11:00:00 16.1 2 Sudoeste 6 Oeste 0 -- -- 73
2019-06-15 10:00:00 14.8 0 Calma 4 Este 0 -- -- 78
2019-06-15 09:00:00 12.2 0 Calma 4 Noroeste 0 -- -- 96
2019-06-15 08:00:00 11.7 0 Calma 3 Norte 0 -- -- 97
2019-06-15 07:00:00 11.5 0 Calma 5 Sudeste 0 -- -- 97
2019-06-15 06:00:00 11.8 0 Calma 2 Sudeste 0 -- -- 96
2019-06-15 05:00:00 11.9 0 Calma 4 Noroeste 0.4 -- -- 96
2019-06-15 04:00:00 12.1 0 Calma 6 Nordeste 0 -- -- 95
2019-06-15 03:00:00 12.4 4 Sudeste 6 Este 0 -- -- 95
2019-06-15 02:00:00 12.5 2 Sudeste 10 Sudeste 2 -- -- 94
2019-06-15 01:00:00 13 4 Sudeste 10 Sudeste 0.4 -- -- 93
2019-06-15 00:00:00 13.3 0 Calma 5 Oeste 0 -- -- 93
2019-06-14 23:00:00 13.7 0 Calma 10 Sudeste 0.4 -- -- 90
2019-06-14 22:00:00 14.9 7 Sur 13 Sur 0.2 -- -- 82
2019-06-14 21:00:00 15.6 3 Este 11 Sur 0 -- -- 72
2019-06-14 20:00:00 16 2 Sudoeste 11 Noroeste 0 -- -- 71
2019-06-14 19:00:00 15 5 Noroeste 28 Norte 0 -- -- 75
2019-06-14 18:00:00 15.5 11 Norte 37 Noroeste 0 -- -- 73
2019-06-14 17:00:00 15.7 13 Noroeste 31 Norte 0 -- -- 73
2019-06-14 16:00:00 16 20 Norte 43 Norte 0 -- -- 70
2019-06-14 15:00:00 15.8 26 Norte 46 Noroeste 0 -- -- 71
2019-06-14 14:00:00 16.7 18 Norte 34 Norte 0 -- -- 67
2019-06-14 13:00:00 16.6 15 Noroeste 36 Norte 0 -- -- 67
2019-06-14 12:00:00 16.4 17 Norte 32 Norte 0 -- -- 65
2019-06-14 11:00:00 15.1 3 Oeste 6 Norte 0 -- -- 71
2019-06-14 10:00:00 13.5 3 Sudeste 6 Sudeste 0 -- -- 72
2019-06-14 09:00:00 10.9 4 Sudeste 10 Sudeste 0 -- -- 81
2019-06-14 08:00:00 10.2 5 Sudeste 10 Sur 0 -- -- 84
2019-06-14 07:00:00 9.4 0 Calma 3 Noroeste 0 -- -- 95
2019-06-14 06:00:00 9.1 0 Calma 4 Norte 0 -- -- 92
2019-06-14 05:00:00 10.2 0 Calma 10 Sudeste 0 -- -- 89
2019-06-14 04:00:00 10.8 2 Sur 5 Sur 0 -- -- 89
2019-06-14 03:00:00 11.3 0 Calma 4 Oeste 0 -- -- 88
2019-06-14 02:00:00 12.1 0 Calma -- -- 0 -- -- 87
2019-06-14 01:00:00 12.7 0 Calma 7 Norte 0 -- -- 84
2019-06-14 00:00:00 12.8 4 Norte 10 Nordeste 0 -- -- 79
2019-06-13 23:00:00 13 4 Norte 16 Norte 0 -- -- 79
2019-06-13 22:00:00 13.1 9 Noroeste 24 Norte 0 -- -- 78
2019-06-13 21:00:00 13.4 11 Noroeste 23 Noroeste 0 -- -- 78
2019-06-13 20:00:00 13.9 8 Noroeste 23 Oeste 0 -- -- 75
2019-06-13 19:00:00 13.8 13 Noroeste 32 Noroeste 0 -- -- 76
2019-06-13 18:00:00 14.2 12 Norte 34 Norte 0 -- -- 74
2019-06-13 17:00:00 13.9 12 Norte 35 Noroeste 0 -- -- 76
2019-06-13 16:00:00 14.5 16 Norte 44 Noroeste 0 -- -- 75
2019-06-13 15:00:00 15.7 20 Noroeste 43 Norte 0 -- -- 71
2019-06-13 14:00:00 15.9 22 Norte 42 Norte 0 -- -- 66
2019-06-13 13:00:00 16.4 11 Norte 29 Norte 0 -- -- 65
2019-06-13 12:00:00 15.3 10 Norte 19 Norte 0 -- -- 63
2019-06-13 11:00:00 13.9 2 Este 6 Norte 0 -- -- 71
2019-06-13 10:00:00 10.6 2 Noroeste 4 Noroeste 0 -- -- 80
2019-06-13 09:00:00 9.3 0 Calma 5 Sudeste 0 -- -- 86
2019-06-13 08:00:00 7.6 0 Calma 2 Oeste 0 -- -- 95
2019-06-13 07:00:00 6.9 0 Calma 5 Oeste 0 -- -- 93
2019-06-13 06:00:00 7.8 0 Calma 4 Oeste 0 -- -- 90
2019-06-13 05:00:00 9.4 0 Calma 5 Sudoeste 0 -- -- 86
2019-06-13 04:00:00 11 4 Sudoeste 6 Oeste 0 -- -- 85
2019-06-13 03:00:00 11.6 0 Calma 4 Sudoeste 0 -- -- 84
2019-06-13 02:00:00 11.9 0 Calma 7 Oeste 0 -- -- 79
2019-06-13 01:00:00 12.5 0 Calma 7 Norte 0 -- -- 75
2019-06-13 00:00:00 12.9 0 Calma 12 Noroeste 0 -- -- 71
2019-06-12 23:00:00 13.1 6 Norte 22 Norte 0 -- -- 67
2019-06-12 22:00:00 13.3 8 Noroeste 27 Noroeste 0 -- -- 66
2019-06-12 21:00:00 13.6 19 Norte 32 Norte 0 -- -- 68
2019-06-12 20:00:00 14.4 14 Noroeste 30 Norte 0 -- -- 68
2019-06-12 19:00:00 15.3 15 Norte 30 Norte 0 -- -- 65
2019-06-12 18:00:00 16.2 11 Norte 30 Norte 0 -- -- 61
2019-06-12 17:00:00 16.6 12 Noroeste 24 Norte 0 -- -- 57
2019-06-12 16:00:00 15.6 10 Norte 22 Norte 0 -- -- 59
2019-06-12 15:00:00 15.6 9 Norte 21 Norte 0 -- -- 58
2019-06-12 14:00:00 15 10 Norte 23 Noroeste 0 -- -- 56
2019-06-12 13:00:00 14.4 0 Calma 4 Noroeste 0 -- -- 58
2019-06-12 12:00:00 11.8 0 Calma 6 Noroeste 0 -- -- 69
2019-06-12 11:00:00 10.1 0 Calma 6 Noroeste 0 -- -- 80
2019-06-12 10:00:00 8.4 0 Calma 3 Noroeste 0 -- -- 90
2019-06-12 09:00:00 6.9 0 Calma 4 Oeste 0 -- -- 96
2019-06-12 08:00:00 6.1 0 Calma 4 Sudeste 0 -- -- 97
2019-06-12 07:00:00 5.7 0 Calma 5 Sudoeste 0 -- -- 97
2019-06-12 06:00:00 6 0 Calma 5 Sudeste 0.2 -- -- 97
2019-06-12 05:00:00 6.4 3 Sur 6 Sur 0 -- -- 96
2019-06-12 04:00:00 7 0 Calma 8 Sudeste 0 -- -- 96
2019-06-12 03:00:00 7.3 0 Calma 8 Sur 0 -- -- 95
2019-06-12 02:00:00 7.6 4 Sur 8 Noroeste 0 -- -- 95
2019-06-12 01:00:00 7.9 2 Este 10 Este 0 -- -- 94
2019-06-12 00:00:00 8.3 0 Calma 10 Sudoeste 0 -- -- 92
2019-06-11 23:00:00 9.6 3 Sur 12 Oeste 0 -- -- 89
2019-06-11 22:00:00 11.5 0 Calma 18 Nordeste 0.2 -- -- 83
2019-06-11 21:00:00 12.9 8 Nordeste 20 Norte 0.2 -- -- 66
2019-06-11 20:00:00 15.1 11 Nordeste 23 Nordeste 0 -- -- 51
2019-06-11 19:00:00 15.2 6 Norte 24 Norte 0 -- -- 53
2019-06-11 18:00:00 15.5 9 Norte 38 Nordeste 0 -- -- 52
2019-06-11 17:00:00 13.2 16 Norte 37 Norte 0 -- -- 65
2019-06-11 16:00:00 15.2 6 Noroeste 26 Nordeste 0 -- -- 54
2019-06-11 15:00:00 14.5 9 Norte 26 Norte 0 -- -- 60
2019-06-11 14:00:00 14.7 12 Nordeste 32 Nordeste 0.2 -- -- 61
2019-06-11 13:00:00 12.9 3 Sudeste 9 Norte 0.2 -- -- 73
2019-06-11 12:00:00 11.8 3 Sudoeste 8 Sudoeste 1 -- -- 81
2019-06-11 11:00:00 11 4 Nordeste 8 Norte 1 -- -- 82
2019-06-11 10:00:00 10.3 0 Calma 8 Sudeste 2 -- -- 87
2019-06-11 09:00:00 9.8 3 Sudeste 10 Oeste 0.8 -- -- 92
2019-06-11 08:00:00 9.4 5 Nordeste 9 Este 0.2 -- -- 95
2019-06-11 07:00:00 9.3 0 Calma 9 Oeste 0.4 -- -- 94
2019-06-11 06:00:00 9.7 4 Sur 19 Norte 1 -- -- 91
2019-06-11 05:00:00 9.8 2 Oeste 7 Oeste 1 -- -- 95
2019-06-11 04:00:00 9.8 3 Sudoeste 8 Sudeste 0 -- -- 95
2019-06-11 03:00:00 10.2 4 Sudeste 7 Sudeste 0 -- -- 95
2019-06-11 02:00:00 10.3 0 Calma 5 Oeste 0.2 -- -- 94
2019-06-11 01:00:00 10.6 0 Calma 5 Sudoeste 0 -- -- 94
2019-06-11 00:00:00 10.6 0 Calma 5 Sudoeste 0 -- -- 93
2019-06-10 23:00:00 10.8 0 Calma 4 Sur 0 -- -- 92
2019-06-10 22:00:00 11 2 Sur 9 Sudeste 0 -- -- 89
2019-06-10 21:00:00 11.5 7 Sudeste 14 Norte 0.8 -- -- 88
2019-06-10 20:00:00 12.2 6 Norte 20 Norte 0.6 -- -- 80
2019-06-10 19:00:00 13.4 10 Norte 31 Norte 0 -- -- 71
2019-06-10 18:00:00 13.7 14 Noroeste 36 Norte 0 -- -- 70
2019-06-10 17:00:00 15.3 18 Norte 39 Noroeste 0 -- -- 65
2019-06-10 16:00:00 17.6 10 Norte 34 Noroeste 0 -- -- 59
2019-06-10 15:00:00 17.9 10 Norte 24 Nordeste 0 -- -- 54
2019-06-10 14:00:00 17.5 13 Norte 28 Nordeste 0 -- -- 52
2019-06-10 13:00:00 17 11 Norte 23 Nordeste 0 -- -- 56
2019-06-10 12:00:00 15.7 12 Noroeste 28 Noroeste 0 -- -- 61
2019-06-10 11:00:00 14.2 2 Noroeste 7 Oeste 0 -- -- 70
2019-06-10 10:00:00 12.9 0 Calma 4 Oeste 0 -- -- 76
2019-06-10 09:00:00 11.5 0 Calma 3 Nordeste 0 -- -- 82
2019-06-10 08:00:00 10.6 0 Calma 3 Oeste 0 -- -- 87
2019-06-10 07:00:00 10.1 0 Calma 3 Norte 0 -- -- 88
2019-06-10 06:00:00 10.1 0 Calma 5 Noroeste 0 -- -- 86
2019-06-10 05:00:00 10 0 Calma 5 Noroeste 0 -- -- 88
2019-06-10 04:00:00 9.8 0 Calma 3 Noroeste 0 -- -- 89
2019-06-10 03:00:00 10.2 3 Noroeste 8 Noroeste 0 -- -- 86
2019-06-10 02:00:00 10.6 0 Calma 6 Sudoeste 0 -- -- 82
2019-06-10 01:00:00 12.3 3 Este 13 Nordeste 0 -- -- 73
2019-06-10 00:00:00 12.4 4 Norte 24 Nordeste 0 -- -- 72
2019-06-09 23:00:00 12.6 10 Noroeste 27 Noroeste 0 -- -- 73
2019-06-09 22:00:00 12.9 12 Noroeste 29 Noroeste 0 -- -- 76
2019-06-09 21:00:00 13.4 11 Norte 29 Norte 0 -- -- 76
2019-06-09 20:00:00 13.5 13 Norte 31 Noroeste 0 -- -- 76
2019-06-09 19:00:00 13.8 12 Noroeste 31 Norte 0 -- -- 74
2019-06-09 18:00:00 13.9 13 Norte 26 Norte 0 -- -- 74
2019-06-09 17:00:00 13.9 11 Noroeste 23 Norte 0 -- -- 76
2019-06-09 16:00:00 14.4 11 Noroeste 27 Norte 0 -- -- 75
2019-06-09 15:00:00 15.1 9 Noroeste 26 Noroeste 0 -- -- 71
2019-06-09 14:00:00 15.7 9 Noroeste 23 Noroeste 0 -- -- 68
2019-06-09 13:00:00 15.5 9 Noroeste 21 Norte 0 -- -- 67
2019-06-09 12:00:00 15.3 6 Noroeste 13 Noroeste 0 -- -- 69
2019-06-09 11:00:00 14.5 4 Norte 15 Noroeste 0 -- -- 70
2019-06-09 10:00:00 13.8 5 Noroeste 14 Noroeste 0 -- -- 71
2019-06-09 09:00:00 13.3 2 Sur 7 Noroeste 0 -- -- 75
2019-06-09 08:00:00 12.7 4 Norte 12 Noroeste 0 -- -- 75
2019-06-09 07:00:00 12.1 0 Calma 3 Sur 0 -- -- 91
2019-06-09 06:00:00 12 0 Calma 3 Noroeste 0 -- -- 91
2019-06-09 05:00:00 12.1 0 Calma 3 Sudoeste 0 -- -- 90
2019-06-09 04:00:00 12.1 0 Calma 4 Sudoeste 0 -- -- 88
2019-06-09 03:00:00 12.1 0 Calma 6 Nordeste 0 -- -- 88
2019-06-09 02:00:00 12.8 0 Calma 6 Este 0 -- -- 85
2019-06-09 01:00:00 12.9 0 Calma 5 Sudeste 0 -- -- 84
2019-06-09 00:00:00 13 3 Sur 9 Norte 0 -- -- 83
2019-06-08 23:00:00 13.1 0 Calma 17 Norte 0 -- -- 80
2019-06-08 22:00:00 13.1 9 Norte 20 Noroeste 0 -- -- 80
2019-06-08 21:00:00 13.3 10 Noroeste 25 Noroeste 0 -- -- 79
2019-06-08 20:00:00 13.4 12 Noroeste 26 Noroeste 0 -- -- 78
2019-06-08 19:00:00 13.6 13 Norte 30 Norte 0 -- -- 79
2019-06-08 18:00:00 13.9 14 Norte 37 Norte 0 -- -- 77
2019-06-08 17:00:00 14.9 21 Noroeste 42 Norte 0 -- -- 72
2019-06-08 16:00:00 15.8 18 Noroeste 50 Norte 0 -- -- 69
2019-06-08 15:00:00 16.4 22 Norte 44 Norte 0 -- -- 67
2019-06-08 14:00:00 17.2 20 Norte 37 Norte 0 -- -- 62
2019-06-08 13:00:00 17.1 12 Norte 28 Norte 0 -- -- 59
2019-06-08 12:00:00 16.5 8 Norte 19 Norte 0 -- -- 60
2019-06-08 11:00:00 15.3 4 Nordeste 11 Este 0 -- -- 60
2019-06-08 10:00:00 13.4 2 Noroeste 5 Noroeste 0 -- -- 74
2019-06-08 09:00:00 11.1 0 Calma 3 Norte 0 -- -- 84
2019-06-08 08:00:00 9.8 0 Calma 6 Sur 0 -- -- 89
2019-06-08 07:00:00 10.2 5 Sudeste 8 Sudeste 0 -- -- 84
2019-06-08 06:00:00 10.8 6 Sudeste 9 Sudeste 0 -- -- 82
2019-06-08 05:00:00 11.2 4 Sudeste 6 Sudeste 0 -- -- 83
2019-06-08 04:00:00 11.1 0 Calma 2 Oeste 0 -- -- 89
2019-06-08 03:00:00 11.2 0 Calma 5 Sudoeste 0 -- -- 87
2019-06-08 02:00:00 11.5 0 Calma 6 Sudoeste 0 -- -- 86
2019-06-08 01:00:00 11.8 2 Sudoeste 5 Sudoeste 0 -- -- 84
2019-06-08 00:00:00 12.2 0 Calma 10 Norte 0 -- -- 83
2019-06-07 23:00:00 12.1 2 Este 8 Sudoeste 0 -- -- 83
2019-06-07 22:00:00 12.5 3 Oeste 13 Sudeste 0 -- -- 77
2019-06-07 21:00:00 12.7 5 Nordeste 29 Norte 0 -- -- 74
2019-06-07 20:00:00 13.1 11 Norte 35 Norte 0.4 -- -- 71
2019-06-07 19:00:00 14.7 12 Norte 23 Norte 0.4 -- -- 63
2019-06-07 18:00:00 16.5 12 Norte 33 Norte 0 -- -- 52
2019-06-07 17:00:00 17.8 12 Norte 32 Norte 0 -- -- 49
2019-06-07 16:00:00 19.2 15 Norte 28 Norte 0 -- -- 43
2019-06-07 15:00:00 20.5 12 Norte 27 Nordeste 0 -- -- 37
2019-06-07 14:00:00 19.8 9 Norte 21 Norte 0 -- -- 33
2019-06-07 13:00:00 18.7 13 Norte 23 Noroeste 0 -- -- 32
2019-06-07 12:00:00 19 8 Norte 17 Norte 0 -- -- 34
2019-06-07 11:00:00 18.3 7 Nordeste 25 Sur 0 -- -- 30
2019-06-07 10:00:00 17 11 Sudeste 26 Sur 0 -- -- 37
2019-06-07 09:00:00 13.7 15 Sudeste 27 Sur 0 -- -- 45
2019-06-07 08:00:00 9 2 Nordeste 9 Sudoeste 0 -- -- 76
2019-06-07 07:00:00 12.2 0 Calma 39 Sudeste 0 -- -- 56
2019-06-07 06:00:00 13.9 19 Sudeste 38 Sur 0 -- -- 45
2019-06-07 05:00:00 13.6 13 Sudeste 38 Sur 0 -- -- 48
2019-06-07 04:00:00 13.8 18 Sudeste 40 Sur 0 -- -- 48
2019-06-07 03:00:00 12.1 8 Sur 25 Sur 0 -- -- 58
2019-06-07 02:00:00 11 6 Sur 18 Sur 0 -- -- 78
2019-06-07 01:00:00 11.8 8 Sur 30 Sudeste 0 -- -- 77
2019-06-07 00:00:00 11.6 3 Oeste 19 Nordeste 0.2 -- -- 84
2019-06-06 23:00:00 14 14 Sur 32 Sudeste 0.8 -- -- 74
2019-06-06 22:00:00 13.9 8 Sudeste 14 Sudeste 1 -- -- 88
2019-06-06 21:00:00 14.7 7 Sudeste 13 Sur 1.4 -- -- 84
2019-06-06 20:00:00 18.2 11 Sudoeste 39 Sur 0 -- -- 57
2019-06-06 19:00:00 22.3 16 Sur 42 Sur 0 -- -- 33
2019-06-06 18:00:00 22.6 15 Sur 36 Sudoeste 0 -- -- 30
2019-06-06 17:00:00 22.4 18 Sur 46 Sudeste 0 -- -- 30
2019-06-06 16:00:00 22.7 17 Sur 49 Sur 0 -- -- 30
2019-06-06 15:00:00 23 19 Sur 44 Sur 0 -- -- 30
2019-06-06 14:00:00 21.2 21 Sudeste 36 Sudeste 0 -- -- 33
2019-06-06 13:00:00 19.1 6 Noroeste 27 Sudoeste 0 -- -- 37
2019-06-06 12:00:00 19.3 8 Sur 21 Sudoeste 0 -- -- 40
2019-06-06 11:00:00 17.7 9 Sur 19 Sudoeste 0 -- -- 46
2019-06-06 10:00:00 14.1 10 Sudeste 19 Sur 0 -- -- 65
2019-06-06 09:00:00 9.2 5 Sudeste 13 Sudeste 0 -- -- 91
2019-06-06 08:00:00 6.9 0 Calma 4 Noroeste 0 -- -- 95
2019-06-06 07:00:00 6.9 0 Calma 4 Oeste 0 -- -- 93
2019-06-06 06:00:00 8 0 Calma 4 Noroeste 0 -- -- 91
2019-06-06 05:00:00 9.1 0 Calma 4 Oeste 0 -- -- 90
2019-06-06 04:00:00 9.9 0 Calma 4 Sudoeste 0 -- -- 87
2019-06-06 03:00:00 10.7 0 Calma 5 Sudoeste 0 -- -- 85
2019-06-06 02:00:00 11.5 0 Calma 7 Sudeste 0 -- -- 80
2019-06-06 01:00:00 11.6 0 Calma 6 Sudoeste 0 -- -- 78
2019-06-06 00:00:00 12.2 3 Sur 7 Sur 0 -- -- 71
2019-06-05 23:00:00 12.5 3 Sudoeste 7 Sudeste 0 -- -- 74
2019-06-05 22:00:00 13.1 3 Sudeste 13 Norte 0 -- -- 69
2019-06-05 21:00:00 13.6 5 Norte 14 Norte 0 -- -- 63
2019-06-05 20:00:00 14.4 5 Noroeste 22 Norte 0 -- -- 59
2019-06-05 19:00:00 14.8 6 Norte 20 Norte 0 -- -- 53
2019-06-05 18:00:00 15.4 7 Norte 30 Norte 0 -- -- 50
2019-06-05 17:00:00 15.4 12 Nordeste 37 Norte 0 -- -- 52
2019-06-05 16:00:00 16.6 14 Norte 36 Nordeste 0 -- -- 48
2019-06-05 15:00:00 15.6 15 Norte 47 Nordeste 0.2 -- -- 50
2019-06-05 14:00:00 16.1 17 Norte 31 Norte 0 -- -- 54
2019-06-05 13:00:00 16 5 Norte 24 Norte 0 -- -- 52
2019-06-05 12:00:00 16.3 8 Norte 19 Nordeste 0 -- -- 58
2019-06-05 11:00:00 15.7 3 Oeste 6 Noroeste 0 -- -- 62
2019-06-05 10:00:00 13.4 2 Norte 6 Noroeste 0 -- -- 81
2019-06-05 09:00:00 11.7 0 Calma 4 Nordeste 0 -- -- 95
2019-06-05 08:00:00 11 0 Calma 4 Sudeste 0 -- -- 96
2019-06-05 07:00:00 10.8 0 Calma 4 Sur 0 -- -- 96
2019-06-05 06:00:00 11 3 Norte 4 Norte 0 -- -- 95
2019-06-05 05:00:00 11.2 0 Calma 6 Sur 0 -- -- 95
2019-06-05 04:00:00 11.2 0 Calma 4 Sur 1 -- -- 95
2019-06-05 03:00:00 11.3 4 Sudeste 14 Sudeste 2.2 -- -- 93
2019-06-05 02:00:00 11.5 6 Sudeste 14 Sudeste 0.2 -- -- 92
2019-06-05 01:00:00 11.8 5 Sudeste 12 Sudeste 0.2 -- -- 91
2019-06-05 00:00:00 12.2 0 Calma 13 Sudoeste 0 -- -- 89
2019-06-04 23:00:00 12.4 3 Oeste 13 Norte 0 -- -- 87
2019-06-04 22:00:00 13.4 8 Norte 19 Noroeste 0 -- -- 74
2019-06-04 21:00:00 13.2 9 Noroeste 21 Noroeste 0.6 -- -- 82
2019-06-04 20:00:00 13.7 8 Noroeste 27 Nordeste 2.6 -- -- 81
2019-06-04 19:00:00 14.3 16 Norte 31 Nordeste 0 -- -- 72
2019-06-04 18:00:00 14.5 17 Norte 45 Norte 0 -- -- 74
2019-06-04 17:00:00 15.4 21 Norte 46 Noroeste 0 -- -- 73
2019-06-04 16:00:00 16.8 18 Norte 52 Norte 0 -- -- 72
2019-06-04 15:00:00 17.9 29 Norte 52 Norte 0 -- -- 71
2019-06-04 14:00:00 21.2 22 Norte 46 Noroeste 0 -- -- 59
2019-06-04 13:00:00 21.9 18 Norte 35 Norte 0 -- -- 59
2019-06-04 12:00:00 21.4 10 Norte 22 Norte 0 -- -- 59
2019-06-04 11:00:00 19.8 11 Norte 34 Norte 0 -- -- 63
2019-06-04 10:00:00 17.6 5 Este 13 Nordeste 0 -- -- 74
2019-06-04 09:00:00 14.5 0 Calma 4 Oeste 0 -- -- 87
2019-06-04 08:00:00 13 0 Calma 6 Noroeste 0 -- -- 93
2019-06-04 07:00:00 12.1 2 Norte 5 Noroeste 0 -- -- 93
2019-06-04 06:00:00 12.4 0 Calma 12 Sur 0 -- -- 92
2019-06-04 05:00:00 13 8 Sudeste 14 Sur 0 -- -- 92
2019-06-04 04:00:00 12.3 0 Calma 5 Oeste 0 -- -- 93
2019-06-04 03:00:00 13.3 0 Calma 3 Oeste 0 -- -- 91
2019-06-04 02:00:00 14.2 0 Calma 4 Oeste 0 -- -- 89
2019-06-04 01:00:00 15.3 0 Calma 5 Sur 0 -- -- 84
2019-06-04 00:00:00 16.7 0 Calma 3 Sudeste 0 -- -- 80
2019-06-03 23:00:00 18.6 0 Calma 10 Noroeste 0 -- -- 74
2019-06-03 22:00:00 19.7 7 Noroeste 22 Norte 0 -- -- 70
2019-06-03 21:00:00 20.6 12 Norte 29 Norte 0 -- -- 66
2019-06-03 20:00:00 22.2 13 Norte 36 Noroeste 0 -- -- 61
2019-06-03 19:00:00 23.8 13 Norte 36 Noroeste 0 -- -- 55
2019-06-03 18:00:00 24.1 15 Norte 37 Norte 0 -- -- 55
2019-06-03 17:00:00 24.3 21 Norte 42 Norte 0 -- -- 53
2019-06-03 16:00:00 24.7 14 Norte 36 Norte 0 -- -- 52
2019-06-03 15:00:00 24.7 16 Norte 33 Noroeste 0 -- -- 54
2019-06-03 14:00:00 24.3 16 Norte 32 Norte 0 -- -- 51
2019-06-03 13:00:00 23.9 12 Noroeste 26 Noroeste 0 -- -- 51
2019-06-03 12:00:00 22.7 7 Noroeste 16 Noroeste 0 -- -- 52
2019-06-03 11:00:00 20.3 3 Norte 9 Norte 0 -- -- 57
2019-06-03 10:00:00 16.7 0 Calma 5 Oeste 0 -- -- 72
2019-06-03 09:00:00 14.1 0 Calma 4 Norte 0 -- -- 82
2019-06-03 08:00:00 12.7 0 Calma 5 Sudoeste 0 -- -- 87
2019-06-03 07:00:00 12.5 0 Calma 4 Oeste 0 -- -- 85
2019-06-03 06:00:00 13.4 2 Sur 9 Sudeste 0 -- -- 82
2019-06-03 05:00:00 13.1 2 Noroeste 10 Este 0 -- -- 82
2019-06-03 04:00:00 12.9 0 Calma 5 Noroeste 0 -- -- 81
2019-06-03 03:00:00 14.1 0 Calma 5 Sur 0 -- -- 77
2019-06-03 02:00:00 16 0 Calma 5 Sur 0 -- -- 71
2019-06-03 01:00:00 17.2 0 Calma 12 Norte 0 -- -- 66
2019-06-03 00:00:00 18.4 8 Noroeste 16 Noroeste 0 -- -- 57
2019-06-02 23:00:00 19.4 4 Noroeste 32 Norte 0 -- -- 59
2019-06-02 22:00:00 20.7 10 Norte 27 Noroeste 0 -- -- 52
2019-06-02 21:00:00 22 15 Norte 33 Norte 0 -- -- 43
2019-06-02 20:00:00 23.4 16 Norte 32 Norte 0 -- -- 47
2019-06-02 19:00:00 25 11 Norte 26 Norte 0 -- -- 44
2019-06-02 18:00:00 26.1 13 Norte 30 Norte 0 -- -- 41
2019-06-02 17:00:00 26.7 16 Norte 36 Norte 0 -- -- 36
2019-06-02 16:00:00 26.9 15 Norte 38 Noroeste 0 -- -- 35
2019-06-02 15:00:00 27.7 17 Norte 34 Noroeste 0 -- -- 36
2019-06-02 14:00:00 28.1 13 Norte 35 Noroeste 0 -- -- 36
2019-06-02 13:00:00 27.2 12 Noroeste 25 Norte 0 -- -- 38
2019-06-02 12:00:00 24.1 0 Calma 4 Norte 0 -- -- 50
2019-06-02 11:00:00 19.5 0 Calma 4 Noroeste 0 -- -- 62
2019-06-02 10:00:00 18.1 0 Calma 5 Noroeste 0 -- -- 65
2019-06-02 09:00:00 13.3 0 Calma 4 Noroeste 0 -- -- 84
2019-06-02 08:00:00 10.7 0 Calma 3 Noroeste 0 -- -- 92
2019-06-02 07:00:00 10.1 0 Calma 3 Oeste 0 -- -- 91
2019-06-02 06:00:00 10.6 0 Calma 2 Sur 0 -- -- 90
2019-06-02 05:00:00 11.3 0 Calma 3 Oeste 0 -- -- 87
2019-06-02 04:00:00 12.2 0 Calma 2 Este 0 -- -- 84
2019-06-02 03:00:00 13.1 0 Calma 3 Sudeste 0 -- -- 82
2019-06-02 02:00:00 14.2 0 Calma 3 Sudoeste 0 -- -- 77
2019-06-02 01:00:00 15.6 0 Calma 3 Oeste 0 -- -- 72
2019-06-02 00:00:00 17.5 0 Calma 3 Oeste 0 -- -- 63
2019-06-01 23:00:00 20.5 2 Sur 6 Sur 0 -- -- 52
2019-06-01 22:00:00 23.5 4 Sudeste 13 Norte 0 -- -- 39
2019-06-01 21:00:00 28 8 Norte 23 Norte 0 -- -- 29
2019-06-01 20:00:00 30.7 8 Noroeste 29 Norte 0 -- -- 25
2019-06-01 19:00:00 31.9 12 Norte 26 Noroeste 0 -- -- 20
2019-06-01 18:00:00 32.4 13 Norte 33 Noroeste 0 -- -- 20
2019-06-01 17:00:00 32.7 16 Norte 34 Norte 0 -- -- 22
2019-06-01 16:00:00 33.1 15 Norte 33 Noroeste 0 -- -- 26
2019-06-01 15:00:00 32.8 14 Norte 30 Norte 0 -- -- 26
2019-06-01 14:00:00 32.5 14 Norte 29 Norte 0 -- -- 28
2019-06-01 13:00:00 31.7 6 Noroeste 12 Norte 0 -- -- 29
2019-06-01 12:00:00 27.2 3 Noroeste 6 Noroeste 0 -- -- 39
2019-06-01 11:00:00 22.5 0 Calma 4 Noroeste 0 -- -- 49
2019-06-01 10:00:00 17.9 0 Calma 4 Este 0 -- -- 62
2019-06-01 09:00:00 11 0 Calma 0 Calma 0 -- -- 94
2019-06-01 08:00:00 9 0 Calma 2 Oeste 0 -- -- 93
2019-06-01 07:00:00 9.1 0 Calma 2 Sur 0 -- -- 92
2019-06-01 06:00:00 9.5 0 Calma 3 Este 0 -- -- 90
2019-06-01 05:00:00 10.2 0 Calma 3 Sudeste 0 -- -- 88
2019-06-01 04:00:00 11 0 Calma 2 Sudeste 0 -- -- 87
2019-06-01 03:00:00 11.9 0 Calma 2 Sur 0 -- -- 85
2019-06-01 02:00:00 13.1 0 Calma 0 Calma 0 -- -- 80
2019-06-01 01:00:00 14.4 0 Calma 2 Oeste 0 -- -- 76
2019-06-01 00:00:00 16.2 0 Calma 4 Sudoeste 0 -- -- 69
2019-05-31 23:00:00 18.7 0 Calma 4 Oeste 0 -- -- 59
2019-05-31 22:00:00 22.5 0 Calma 8 Sudoeste 0 -- -- 44
2019-05-31 21:00:00 25.6 0 Calma 17 Noroeste 0 -- -- 37
2019-05-31 20:00:00 29.8 10 Noroeste 25 Noroeste 0 -- -- 27
2019-05-31 19:00:00 30.8 12 Noroeste 28 Norte 0 -- -- 24
2019-05-31 18:00:00 31.1 13 Norte 32 Norte 0 -- -- 25
2019-05-31 17:00:00 31.4 12 Norte 30 Norte 0 -- -- 27
2019-05-31 16:00:00 31.6 12 Norte 27 Norte 0 -- -- 30
2019-05-31 15:00:00 31.7 10 Norte 23 Noroeste 0 -- -- 27
2019-05-31 14:00:00 31.2 7 Norte 15 Norte 0 -- -- 28
2019-05-31 13:00:00 29.4 3 Norte 6 Noroeste 0 -- -- 32
2019-05-31 12:00:00 25.3 2 Noroeste 6 Noroeste 0 -- -- 44
2019-05-31 11:00:00 21.5 0 Calma 4 Este 0 -- -- 54
2019-05-31 10:00:00 16.6 0 Calma 4 Este 0 -- -- 73
2019-05-31 09:00:00 10.6 0 Calma 3 Noroeste 0 -- -- 99
2019-05-31 08:00:00 8.7 0 Calma 2 Sur 0 -- -- 95
2019-05-31 07:00:00 9 0 Calma 0 Calma 0 -- -- 95
2019-05-31 06:00:00 9.6 0 Calma -- -- 0 -- -- 94
2019-05-31 05:00:00 10.3 0 Calma 2 Este 0 -- -- 93
2019-05-31 04:00:00 11.1 0 Calma 0 Calma 0 -- -- 92
2019-05-31 03:00:00 11.9 0 Calma 3 Sudeste 0 -- -- 91
2019-05-31 02:00:00 12.8 0 Calma 3 Oeste 0 -- -- 88
2019-05-31 01:00:00 14 0 Calma 4 Sudoeste 0 -- -- 85
2019-05-31 00:00:00 15.9 0 Calma 5 Sudoeste 0 -- -- 79
2019-05-30 23:00:00 18.3 0 Calma 9 Sudoeste 0 -- -- 70
2019-05-30 22:00:00 21.6 2 Sudoeste 27 Noroeste 0 -- -- 58
2019-05-30 21:00:00 23.5 10 Noroeste 32 Noroeste 0 -- -- 50
2019-05-30 20:00:00 25.6 13 Noroeste 34 Noroeste 0 -- -- 46
2019-05-30 19:00:00 26.8 12 Norte 35 Norte 0 -- -- 43
2019-05-30 18:00:00 27 17 Norte 44 Norte 0 -- -- 46
2019-05-30 17:00:00 27.6 17 Norte 35 Norte 0 -- -- 47
2019-05-30 16:00:00 28 17 Norte 35 Norte 0 -- -- 45
2019-05-30 15:00:00 27.7 12 Noroeste 29 Noroeste 0 -- -- 46
2019-05-30 14:00:00 27.4 10 Norte 20 Noroeste 0 -- -- 43
2019-05-30 13:00:00 26.3 4 Noroeste 12 Este 0 -- -- 45
2019-05-30 12:00:00 22.7 3 Oeste 5 Oeste 0 -- -- 47
2019-05-30 11:00:00 18.6 2 Noroeste 4 Oeste 0 -- -- 60
2019-05-30 10:00:00 14.8 0 Calma 4 Sudeste 0 -- -- 74
2019-05-30 09:00:00 9 0 Calma 2 Noroeste 0 -- -- 98
2019-05-30 08:00:00 7 0 Calma -- -- 0 -- -- 96
2019-05-30 07:00:00 7 0 Calma -- -- 0 -- -- 95
2019-05-30 06:00:00 7.4 0 Calma 2 Noroeste 0 -- -- 95
2019-05-30 05:00:00 8 0 Calma 2 Sur 0 -- -- 94
2019-05-30 04:00:00 8.5 0 Calma 3 Noroeste 0 -- -- 93
2019-05-30 03:00:00 9.4 0 Calma 3 Oeste 0 -- -- 92
2019-05-30 02:00:00 10.4 0 Calma 4 Sudoeste 0 -- -- 90
2019-05-30 01:00:00 11.6 0 Calma 2 Oeste 0 -- -- 86
2019-05-30 00:00:00 13.4 0 Calma 4 Sur 0 -- -- 81
2019-05-29 23:00:00 15.2 0 Calma 5 Sudeste 0 -- -- 75
2019-05-29 22:00:00 17.6 2 Sudoeste 19 Norte 0 -- -- 66
2019-05-29 21:00:00 19.1 10 Norte 26 Norte 0 -- -- 61
2019-05-29 20:00:00 21.1 10 Norte 30 Norte 0 -- -- 55
2019-05-29 19:00:00 22 11 Norte 28 Norte 0 -- -- 52
2019-05-29 18:00:00 22.6 16 Norte 33 Noroeste 0 -- -- 49
2019-05-29 17:00:00 22.9 13 Norte 31 Noroeste 0 -- -- 49
2019-05-29 16:00:00 22.4 14 Norte 27 Noroeste 0 -- -- 49
2019-05-29 15:00:00 21.6 14 Norte 33 Norte 0 -- -- 53
2019-05-29 14:00:00 20.6 14 Noroeste 27 Norte 0 -- -- 54
2019-05-29 13:00:00 20.1 8 Noroeste 16 Norte 0 -- -- 50
2019-05-29 12:00:00 18.8 5 Norte 12 Noroeste 0 -- -- 54
2019-05-29 11:00:00 16.3 2 Este 6 Sudeste 0 -- -- 58
2019-05-29 10:00:00 12.9 0 Calma 5 Sudeste 0 -- -- 69
2019-05-29 09:00:00 7.4 0 Calma 3 Norte 0 -- -- 96
2019-05-29 08:00:00 5.7 0 Calma 2 Oeste 0 -- -- 94
2019-05-29 07:00:00 6.1 0 Calma 3 Oeste 0 -- -- 92
2019-05-29 06:00:00 7.1 0 Calma 5 Sudoeste 0 -- -- 90
2019-05-29 05:00:00 8.1 0 Calma 4 Oeste 0 -- -- 89
2019-05-29 04:00:00 8.5 0 Calma 5 Sudoeste 0 -- -- 88
2019-05-29 03:00:00 8.8 0 Calma 9 Sudeste 0 -- -- 85
2019-05-29 02:00:00 8.9 0 Calma 5 Sudoeste 0 -- -- 84
2019-05-29 01:00:00 10.6 2 Sudoeste 13 Sur 0 -- -- 76
2019-05-29 00:00:00 12.3 8 Sudeste 23 Noroeste 0 -- -- 70
2019-05-28 23:00:00 14.2 11 Noroeste 25 Norte 0 -- -- 60
2019-05-28 22:00:00 14.4 9 Noroeste 33 Norte 0 -- -- 60
2019-05-28 21:00:00 14.8 12 Norte 32 Noroeste 0 -- -- 62
2019-05-28 20:00:00 17 14 Norte 42 Norte 0 -- -- 52
2019-05-28 19:00:00 17.7 17 Norte 43 Nordeste 0 -- -- 50
2019-05-28 18:00:00 18 19 Norte 59 Nordeste 0 -- -- 50
2019-05-28 17:00:00 18.2 20 Norte 47 Norte 0 -- -- 46
2019-05-28 16:00:00 17.9 19 Norte 45 Nordeste 0 -- -- 50
2019-05-28 15:00:00 18.4 21 Norte 53 Nordeste 0 -- -- 45
2019-05-28 14:00:00 18 21 Norte 43 Norte 0 -- -- 46
2019-05-28 13:00:00 18 16 Norte 41 Nordeste 0 -- -- 47
2019-05-28 12:00:00 16.7 12 Noroeste 32 Nordeste 0 -- -- 48
2019-05-28 11:00:00 15.2 14 Norte 31 Norte 0 -- -- 53
2019-05-28 10:00:00 13.9 0 Calma 5 Este 0 -- -- 65
2019-05-28 09:00:00 11.4 3 Este 13 Sur 0 -- -- 74
2019-05-28 08:00:00 10.9 4 Sudeste 15 Sudeste 0 -- -- 76
2019-05-28 07:00:00 12.1 5 Sur 18 Norte 0 -- -- 71
2019-05-28 06:00:00 12.5 7 Norte 21 Norte 0 -- -- 64
2019-05-28 05:00:00 12.8 6 Noroeste 30 Norte 0 -- -- 66
2019-05-28 04:00:00 13.5 7 Norte 26 Norte 0 -- -- 62
2019-05-28 03:00:00 13.6 12 Norte 26 Norte 0 -- -- 65
2019-05-28 02:00:00 13.8 7 Noroeste 23 Noroeste 0 -- -- 65
2019-05-28 01:00:00 14.2 11 Norte 29 Norte 0 -- -- 65
2019-05-28 00:00:00 14.4 10 Norte 26 Norte 0 -- -- 66
2019-05-27 23:00:00 14.6 9 Norte 26 Norte 0 -- -- 66
2019-05-27 22:00:00 14.8 10 Norte 32 Norte 0 -- -- 72
2019-05-27 21:00:00 15.2 16 Norte 36 Norte 0 -- -- 71
2019-05-27 20:00:00 16.1 12 Norte 43 Norte 0 -- -- 70
2019-05-27 19:00:00 16.5 13 Norte 37 Nordeste 0 -- -- 71
2019-05-27 18:00:00 18.1 19 Norte 41 Norte 0 -- -- 65
2019-05-27 17:00:00 19 17 Norte 43 Nordeste 0 -- -- 62
2019-05-27 16:00:00 18.8 17 Norte 49 Nordeste 0 -- -- 66
2019-05-27 15:00:00 20.3 20 Norte 49 Nordeste 0 -- -- 60
2019-05-27 14:00:00 19.9 21 Norte 42 Norte 0 -- -- 59
2019-05-27 13:00:00 19.8 13 Norte 33 Nordeste 0 -- -- 62
2019-05-27 12:00:00 18.5 4 Noroeste 11 Noroeste 0 -- -- 67
2019-05-27 11:00:00 17 4 Este 8 Noroeste 0 -- -- 70
2019-05-27 10:00:00 14.9 0 Calma 5 Noroeste 0 -- -- 79
2019-05-27 09:00:00 13.8 0 Calma 5 Nordeste 0 -- -- 83
2019-05-27 08:00:00 13.2 0 Calma 5 Nordeste 0 -- -- 84
2019-05-27 07:00:00 13 0 Calma 4 Nordeste 0 -- -- 83
2019-05-27 06:00:00 13.2 2 Norte 7 Norte 0 -- -- 81
2019-05-27 05:00:00 13.4 0 Calma 4 Nordeste 0 -- -- 83
2019-05-27 04:00:00 13.3 0 Calma 9 Nordeste 0 -- -- 84
2019-05-27 03:00:00 13.5 4 Nordeste 6 Nordeste 0 -- -- 83
2019-05-27 02:00:00 13.8 5 Norte 11 Norte 0 -- -- 82
2019-05-27 01:00:00 14 0 Calma 4 Norte 0 -- -- 83
2019-05-27 00:00:00 13.7 0 Calma 3 Oeste 0 -- -- 85
2019-05-26 23:00:00 13.4 0 Calma 5 Sur 0 -- -- 83
2019-05-26 22:00:00 14.5 4 Norte 14 Norte 0 -- -- 79
2019-05-26 21:00:00 14.7 8 Noroeste 31 Norte 0 -- -- 79
2019-05-26 20:00:00 15.9 16 Norte 37 Norte 0 -- -- 74
2019-05-26 19:00:00 17.1 19 Norte 40 Norte 0 -- -- 69
2019-05-26 18:00:00 17.5 21 Norte 49 Norte 0 -- -- 67
2019-05-26 17:00:00 18 17 Noroeste 44 Noroeste 0 -- -- 68
2019-05-26 16:00:00 18.9 16 Noroeste 37 Norte 0 -- -- 65
2019-05-26 15:00:00 19.1 19 Norte 39 Norte 0 -- -- 61
2019-05-26 14:00:00 18.5 19 Norte 37 Norte 0 -- -- 61
2019-05-26 13:00:00 17.9 16 Norte 30 Norte 0 -- -- 63
2019-05-26 12:00:00 17.7 14 Norte 30 Norte 0 -- -- 62
2019-05-26 11:00:00 16.6 5 Noroeste 16 Norte 0 -- -- 67
2019-05-26 10:00:00 13.6 0 Calma 4 Norte 0 -- -- 77
2019-05-26 09:00:00 9.7 0 Calma 2 Sudeste 0 -- -- 94
2019-05-26 08:00:00 7.8 0 Calma 2 Oeste 0 -- -- 95
2019-05-26 07:00:00 8.1 0 Calma -- -- 0 -- -- 93
2019-05-26 06:00:00 9 0 Calma 4 Noroeste 0 -- -- 92
2019-05-26 05:00:00 10 0 Calma 3 Norte 0 -- -- 90
2019-05-26 04:00:00 10.7 0 Calma 4 Noroeste 0 -- -- 88
2019-05-26 03:00:00 10.9 0 Calma 5 Sudoeste 0 -- -- 86
2019-05-26 02:00:00 10.9 2 Sur 4 Sudoeste 0 -- -- 85
2019-05-26 01:00:00 12.5 0 Calma 10 Norte 0 -- -- 77
2019-05-26 00:00:00 14 6 Noroeste 17 Norte 0 -- -- 71